ENZVENSO

Guest
Details From ENZV - Stavanger Lufthavn Sola
To ENSO - Stord Sorstokken
Flight Number -
Tags generated
Created
Modified
Stats Distance 56 nm / 103 km
Max Altitude 1,800 ft / 549 m
Waypoints 3
Social Downloads 0
Likes 0
Share VATSIM

Download

Looking for another format? Having issues loading an existing format? Contact us
Advertisement - Login to hide

Notes

Basic altitude profile: - Ascent Rate: 2500ft/min - Ascent Speed: 250kts - Cruise Altitude: 35000ft - Cruise Speed: 420kts - Descent Rate: 1500ft/min - Descent Speed: 250kts Options: - Use NATs: yes - Use PACOTS: yes - Use low airways: yes - Use high airways: no

Route

ENZV OKLAN ENSO

ID Type Via Altitude Latitude Longitude Leg Dist Tot Dist Heading (true) Name
O ENZV APT - 0 ft / 0 m 58.88046˚ 5.63143˚ - 0 nm - Stavanger Lufthavn Sola
OKLAN FIX - 1,800 ft / 549 m 59.64917˚ 5.41417˚ 46 nm 46 nm 352° / 352° -
O ENSO APT - 0 ft / 0 m 59.79192˚ 5.34085˚ 8 nm 55 nm 346° / 345° Stord Sorstokken

Altitude Profile

Advertisement - Login to hide

ENZV

Details ICAO ENZV (SVG)
Name Stavanger Lufthavn Sola
Region Norway
Timezone Europe/Oslo (UTC+2.0)
Stats Elevation 29 ft / 9 m (AMSL)
Location 58.880464° 5.631430°
Runways 2
Magnetic Variation 1.165° E

METAR

ENZV 231650Z 30011KT CAVOK 12/08 Q1028 NOSIG

Decode

TAF

TAF ENZV 231100Z 2312/2412 31008KT 9999 SCT008 PROB30 2312/2322 BKN008 PROB40 2322/2408 0500 FG VV002

Decode

Departure Runways

ID Width Length Bearing (true) Bearing (mag) Surface Threshold Offset Overrun Length
11 148 ft / 45 m 8,018 ft / 2,444 m 106.32° 105.15° Asphalt 328 ft / 100 m 0 ft / 0 m
18 197 ft / 60 m 8,372 ft / 2,552 m 179.12° 177.95° Asphalt 197 ft / 60 m 0 ft / 0 m
29 148 ft / 45 m 8,018 ft / 2,444 m 286.36° 285.19° Asphalt 502 ft / 153 m 0 ft / 0 m
36 197 ft / 60 m 8,372 ft / 2,552 m 359.12° 357.95° Asphalt 0 ft / 0 m 0 ft / 0 m

ENSO

Details ICAO ENSO (SRP)
Name Stord Sorstokken
Region Norway
Timezone Europe/Oslo (UTC+2.0)
Stats Elevation 161 ft / 49 m (AMSL)
Location 59.791925° 5.340850°
Runways 1
Magnetic Variation 0.998° E

METAR

ENSO 231620Z 26006KT CAVOK 16/07 Q1027

Decode

TAF

Not found

Destination Runways

ID Width Length Bearing (true) Bearing (mag) Surface Threshold Offset Overrun Length
14 98 ft / 30 m 4,779 ft / 1,457 m 144.82° 143.82° Asphalt 230 ft / 70 m 0 ft / 0 m
32 98 ft / 30 m 4,779 ft / 1,457 m 324.84° 323.84° Asphalt 230 ft / 70 m 0 ft / 0 m

Approach Navaids

Runway Type Ident Frequency Range Bearing (true) Bearing (mag) Slope Elevation
14 Localiser SRD 110.10 MHz 18 nm / 33 km 144.99° 143.99° - 151 ft / 46 m (AMSL)

Popular Alternatives